createdAt,value
2022-09-07T00:02:22.614Z,3.33
2022-09-07T00:04:53.100Z,3.70
2022-09-07T00:07:21.734Z,3.25
2022-09-07T00:09:51.417Z,5.25
2022-09-07T00:12:20.696Z,1.60
2022-09-07T00:14:50.084Z,4.37
2022-09-07T00:25:06.922Z,5.38
2022-09-07T00:27:36.051Z,7.72
2022-09-07T00:30:05.365Z,5.03
2022-09-07T00:32:33.223Z,4.43
2022-09-07T00:35:01.451Z,3.60
2022-09-07T00:37:30.772Z,4.18
2022-09-07T00:40:00.276Z,6.00
2022-09-07T00:42:29.932Z,4.10
2022-09-07T00:49:22.553Z,3.40
2022-09-07T00:51:57.877Z,4.00
2022-09-07T00:54:33.062Z,5.28
2022-09-07T00:57:01.596Z,4.45
2022-09-07T00:59:40.360Z,5.00
2022-09-07T01:02:12.706Z,4.40
2022-09-07T01:04:51.476Z,6.38
2022-09-07T01:12:25.204Z,2.85
2022-09-07T01:14:55.109Z,4.25
2022-09-07T01:17:42.056Z,2.88
2022-09-07T01:20:40.811Z,1.98
2022-09-07T01:23:30.832Z,3.35
2022-09-07T01:26:25.333Z,2.95
2022-09-07T01:29:06.792Z,5.30
2022-09-07T01:37:20.793Z,5.82
2022-09-07T01:40:00.523Z,1.85
2022-09-07T01:42:34.510Z,2.60
2022-09-07T01:45:05.261Z,3.55
2022-09-07T01:47:42.413Z,2.45
2022-09-07T01:50:25.903Z,3.28
2022-09-07T01:53:21.496Z,4.75
2022-09-07T02:01:46.589Z,2.47
2022-09-07T02:04:22.471Z,3.13
2022-09-07T02:06:53.573Z,3.70
2022-09-07T02:09:53.711Z,3.05
2022-09-07T02:12:54.193Z,4.03
2022-09-07T02:15:43.332Z,3.42
2022-09-07T02:18:16.965Z,2.47
2022-09-07T02:26:06.703Z,1.75
2022-09-07T02:28:36.704Z,4.45
2022-09-07T02:31:05.087Z,3.35
2022-09-07T02:33:33.645Z,3.58
2022-09-07T02:36:04.249Z,2.92
2022-09-07T02:38:33.120Z,6.15
2022-09-07T02:41:03.486Z,3.05
2022-09-07T02:48:14.017Z,4.85
2022-09-07T02:51:07.709Z,4.80
2022-09-07T02:53:43.543Z,3.60
2022-09-07T02:56:31.442Z,4.10
2022-09-07T02:59:05.657Z,4.03
2022-09-07T03:01:41.433Z,3.42
2022-09-07T03:04:15.222Z,4.45
2022-09-07T03:12:13.286Z,2.90
2022-09-07T03:14:44.486Z,4.03
2022-09-07T03:17:13.332Z,4.63
2022-09-07T03:19:41.802Z,3.78
2022-09-07T03:22:11.630Z,4.13
2022-09-07T03:24:45.119Z,2.53
2022-09-07T03:27:13.074Z,3.22
2022-09-07T03:34:23.162Z,3.22
2022-09-07T03:36:52.361Z,2.47
2022-09-07T03:39:23.768Z,4.65
2022-09-07T03:41:52.298Z,2.08
2022-09-07T03:44:24.143Z,3.75
2022-09-07T03:46:51.835Z,2.22
2022-09-07T03:49:20.990Z,2.30
2022-09-07T03:51:52.786Z,3.20
2022-09-07T04:01:36.960Z,4.50
2022-09-07T04:04:04.408Z,4.45
2022-09-07T04:06:32.981Z,2.42
2022-09-07T04:09:11.234Z,5.18
2022-09-07T04:11:40.886Z,4.43
2022-09-07T04:14:11.463Z,4.57
2022-09-07T04:16:42.492Z,6.88
2022-09-07T04:19:11.741Z,7.25
2022-09-07T04:25:04.708Z,5.25
2022-09-07T04:27:32.618Z,3.83
2022-09-07T04:30:01.906Z,4.25
2022-09-07T04:32:31.270Z,10.40
2022-09-07T04:35:00.704Z,19.13
2022-09-07T04:37:30.676Z,9.65
2022-09-07T04:40:02.702Z,10.45
2022-09-07T04:45:12.976Z,10.32
2022-09-07T04:47:47.971Z,7.13
2022-09-07T04:50:20.247Z,9.85
2022-09-07T04:52:52.456Z,13.07
2022-09-07T04:55:21.776Z,10.82
2022-09-07T04:57:51.448Z,7.82
2022-09-07T05:00:21.163Z,9.82
2022-09-07T05:05:42.953Z,5.78
2022-09-07T05:08:13.771Z,7.80
2022-09-07T05:10:54.346Z,10.00
2022-09-07T05:13:22.501Z,4.10
2022-09-07T05:15:51.688Z,12.45
2022-09-07T05:18:21.036Z,9.05
2022-09-07T05:20:50.445Z,13.48
2022-09-07T05:23:17.921Z,4.77
2022-09-07T05:36:22.620Z,2.42
2022-09-07T05:38:54.692Z,5.07
2022-09-07T05:41:27.927Z,5.70
2022-09-07T05:46:44.979Z,8.98
2022-09-07T05:54:22.986Z,5.38
2022-09-07T05:56:51.709Z,4.22
2022-09-07T05:59:20.788Z,6.60
2022-09-07T06:01:51.666Z,4.85
2022-09-07T06:04:21.258Z,7.07
2022-09-07T06:07:11.038Z,4.60
2022-09-07T06:17:22.472Z,3.17
2022-09-07T06:19:54.715Z,3.97
2022-09-07T06:22:22.702Z,6.68
2022-09-07T06:24:51.625Z,5.07
2022-09-07T06:27:20.933Z,4.47
2022-09-07T06:29:53.117Z,5.95
2022-09-07T06:35:15.303Z,5.85
2022-09-07T06:42:04.131Z,4.43
2022-09-07T06:44:32.914Z,4.03
2022-09-07T06:47:03.985Z,6.38
2022-09-07T06:49:34.304Z,7.38
2022-09-07T06:52:02.820Z,5.95
2022-09-07T06:57:21.132Z,6.28
2022-09-07T07:04:37.769Z,3.47
2022-09-07T07:07:14.417Z,6.63
2022-09-07T07:09:45.159Z,6.63
2022-09-07T07:12:12.646Z,7.68
2022-09-07T07:14:44.995Z,5.30
2022-09-07T07:17:13.752Z,4.80
2022-09-07T07:19:44.252Z,3.25
2022-09-07T07:27:14.416Z,6.63
2022-09-07T07:29:43.264Z,5.88
2022-09-07T07:32:12.292Z,6.25
2022-09-07T07:34:41.610Z,4.90
2022-09-07T07:37:11.655Z,3.33
2022-09-07T07:42:32.556Z,5.35
2022-09-07T07:51:22.057Z,4.13
2022-09-07T07:53:51.897Z,5.00
2022-09-07T07:56:21.744Z,4.28
2022-09-07T07:58:51.393Z,4.53
2022-09-07T08:01:21.839Z,6.17
2022-09-07T08:03:51.215Z,5.03
2022-09-07T08:06:22.618Z,5.43
2022-09-07T08:08:52.753Z,3.78
2022-09-07T08:15:47.272Z,4.15
2022-09-07T08:18:16.998Z,5.57
2022-09-07T08:20:44.600Z,6.37
2022-09-07T08:23:12.957Z,5.03
2022-09-07T08:25:51.756Z,6.35
2022-09-07T08:28:24.088Z,7.30
2022-09-07T08:30:53.054Z,4.50
2022-09-07T08:42:41.891Z,7.38
2022-09-07T08:45:16.217Z,6.57
2022-09-07T08:47:55.415Z,5.70
2022-09-07T08:50:35.623Z,5.18
2022-09-07T08:53:15.018Z,7.68
2022-09-07T08:56:14.142Z,8.05
2022-09-07T08:58:54.256Z,7.93
2022-09-07T09:08:48.081Z,9.75
2022-09-07T09:11:51.719Z,5.60
2022-09-07T09:14:42.944Z,8.45
2022-09-07T09:17:42.149Z,4.72
2022-09-07T09:20:56.163Z,6.78
2022-09-07T09:23:37.355Z,5.95
2022-09-07T09:31:36.409Z,4.97
2022-09-07T09:34:15.880Z,9.68
2022-09-07T09:36:43.746Z,7.10
2022-09-07T09:39:37.496Z,4.63
2022-09-07T09:42:08.644Z,8.13
2022-09-07T09:44:38.560Z,5.00
2022-09-07T09:47:33.437Z,6.78
2022-09-07T09:52:51.568Z,4.38
2022-09-07T09:55:51.968Z,5.88
2022-09-07T10:01:27.090Z,6.13
2022-09-07T10:06:28.401Z,5.97
2022-09-07T10:09:00.628Z,4.35
2022-09-07T10:17:42.184Z,5.90
2022-09-07T10:20:21.958Z,6.03
2022-09-07T10:22:55.275Z,5.90
2022-09-07T10:25:37.458Z,5.05
2022-09-07T10:28:15.314Z,5.57
2022-09-07T10:31:11.048Z,6.25
2022-09-07T10:34:26.302Z,5.38
2022-09-07T10:46:04.404Z,6.47
2022-09-07T10:49:03.558Z,6.40
2022-09-07T10:51:43.204Z,5.28
2022-09-07T10:54:42.859Z,4.27
2022-09-07T10:57:49.315Z,3.67
2022-09-07T11:03:25.295Z,6.57
2022-09-07T11:05:58.804Z,4.28
2022-09-07T11:09:20.763Z,6.20
2022-09-07T11:12:02.518Z,5.63
2022-09-07T11:14:42.131Z,6.72
2022-09-07T11:18:01.558Z,6.95
2022-09-07T11:27:12.373Z,8.50
2022-09-07T11:30:01.578Z,10.07
2022-09-07T11:32:38.662Z,7.38
2022-09-07T11:35:24.706Z,4.88
2022-09-07T11:38:00.721Z,7.57
2022-09-07T11:40:52.993Z,6.70
2022-09-07T11:43:27.277Z,6.78
2022-09-07T11:53:48.833Z,4.05
2022-09-07T11:56:37.250Z,5.43
2022-09-07T11:59:27.795Z,5.65
2022-09-07T12:04:56.565Z,5.63
2022-09-07T12:07:24.122Z,5.10
2022-09-07T12:09:55.405Z,5.30
2022-09-07T12:18:14.658Z,7.63
2022-09-07T12:20:45.802Z,3.47
2022-09-07T12:23:15.821Z,5.43
2022-09-07T12:26:31.429Z,8.05
2022-09-07T12:28:58.712Z,3.88
2022-09-07T12:31:58.753Z,2.97
2022-09-07T12:34:32.749Z,5.00
2022-09-07T12:40:36.029Z,4.43
2022-09-07T12:43:15.927Z,6.68
2022-09-07T12:45:51.788Z,5.20
2022-09-07T12:48:19.089Z,4.38
2022-09-07T12:51:03.324Z,4.38
2022-09-07T12:53:46.017Z,3.30
2022-09-07T12:56:29.010Z,5.32
2022-09-07T13:05:02.561Z,2.63
2022-09-07T13:07:55.801Z,4.70
2022-09-07T13:10:36.736Z,5.40
2022-09-07T13:13:04.543Z,3.50
2022-09-07T13:15:55.604Z,4.28
2022-09-07T13:18:26.811Z,3.90
2022-09-07T13:21:14.223Z,5.90
2022-09-07T13:29:42.529Z,3.28
2022-09-07T13:35:27.303Z,3.67
2022-09-07T13:38:04.260Z,2.97
2022-09-07T13:40:41.864Z,4.30
2022-09-07T13:43:21.100Z,3.28
2022-09-07T13:51:07.597Z,2.63
2022-09-07T13:54:01.795Z,4.68
2022-09-07T13:56:58.260Z,5.30
2022-09-07T13:59:28.683Z,3.15
2022-09-07T14:01:57.147Z,1.42
2022-09-07T14:04:39.453Z,3.33
2022-09-07T14:07:22.166Z,5.05
2022-09-07T14:16:44.150Z,3.40
2022-09-07T14:19:24.009Z,2.55
2022-09-07T14:22:05.017Z,2.72
2022-09-07T14:24:41.978Z,2.72
2022-09-07T14:27:26.271Z,3.13
2022-09-07T14:29:53.786Z,3.30
2022-09-07T14:32:27.173Z,2.88
2022-09-07T14:40:04.429Z,2.28
2022-09-07T14:42:32.121Z,2.63
2022-09-07T14:45:32.347Z,2.58
2022-09-07T14:48:02.030Z,2.75
2022-09-07T14:50:35.040Z,3.17
2022-09-07T14:56:31.796Z,3.40
2022-09-07T15:04:03.849Z,1.73
2022-09-07T15:12:15.558Z,1.80
2022-09-07T15:14:47.849Z,2.00
2022-09-07T15:17:48.178Z,3.30
2022-09-07T15:23:35.830Z,2.30
2022-09-07T15:26:04.136Z,2.53
2022-09-07T15:31:54.370Z,3.97
2022-09-07T15:34:18.905Z,1.90
2022-09-07T15:36:55.395Z,1.92
2022-09-07T15:39:26.965Z,2.38
2022-09-07T15:49:50.337Z,2.97
2022-09-07T15:56:25.320Z,2.58
2022-09-07T15:58:54.116Z,3.95
2022-09-07T16:07:07.049Z,2.70
2022-09-07T16:09:37.675Z,3.72
2022-09-07T16:14:56.361Z,3.37
2022-09-07T16:17:28.129Z,2.15
2022-09-07T16:20:03.854Z,1.52
2022-09-07T16:29:04.479Z,2.28
2022-09-07T16:31:35.940Z,1.92
2022-09-07T16:34:04.390Z,1.75
2022-09-07T16:36:35.301Z,3.80
2022-09-07T16:39:03.896Z,2.35
2022-09-07T16:41:36.223Z,3.90
2022-09-07T16:44:03.700Z,1.33
2022-09-07T16:51:07.545Z,2.95
2022-09-07T16:53:35.948Z,2.45
2022-09-07T16:56:09.003Z,1.58
2022-09-07T16:58:39.277Z,1.45
2022-09-07T17:01:14.752Z,3.95
2022-09-07T17:03:44.185Z,3.03
2022-09-07T17:10:06.298Z,2.05
2022-09-07T17:12:33.748Z,1.92
2022-09-07T17:15:02.982Z,2.30
2022-09-07T17:19:58.155Z,2.05
2022-09-07T17:22:26.320Z,3.30
2022-09-07T17:24:53.658Z,2.20
2022-09-07T17:27:23.880Z,3.45
2022-09-07T17:34:57.975Z,1.35
2022-09-07T17:37:25.676Z,2.35
2022-09-07T17:39:53.744Z,2.17
2022-09-07T17:42:25.548Z,4.90
2022-09-07T17:44:53.873Z,4.18
2022-09-07T17:47:23.033Z,4.90
2022-09-07T17:52:18.178Z,8.20
2022-09-07T17:57:25.704Z,4.85
2022-09-07T18:02:43.109Z,4.32
2022-09-07T18:05:12.133Z,4.60
2022-09-07T18:07:39.515Z,4.97
2022-09-07T18:10:08.577Z,3.03
2022-09-07T18:12:36.319Z,2.80
2022-09-07T18:22:53.427Z,3.63
2022-09-07T18:25:22.817Z,3.60
2022-09-07T18:30:42.961Z,5.40
2022-09-07T18:33:12.133Z,2.58
2022-09-07T18:35:39.415Z,3.55
2022-09-07T18:38:08.404Z,3.50
2022-09-07T18:48:23.508Z,6.72
2022-09-07T18:50:54.565Z,2.83
2022-09-07T18:53:24.147Z,3.67
2022-09-07T18:55:52.716Z,3.67
2022-09-07T18:58:22.178Z,3.73
2022-09-07T19:00:53.782Z,7.75
2022-09-07T19:03:23.007Z,8.52
2022-09-07T19:05:52.839Z,3.17
2022-09-07T19:13:28.008Z,3.80
2022-09-07T19:16:02.643Z,5.53
2022-09-07T19:18:31.660Z,6.25
2022-09-07T19:21:16.151Z,3.90
2022-09-07T19:27:27.051Z,3.35
2022-09-07T19:29:55.669Z,2.33
2022-09-07T19:37:33.602Z,3.67
2022-09-07T19:40:01.844Z,3.45
2022-09-07T19:42:29.456Z,2.70
2022-09-07T19:44:57.034Z,5.38
2022-09-07T19:47:24.729Z,4.05
2022-09-07T19:49:56.499Z,4.15
2022-09-07T19:52:24.069Z,3.75
2022-09-07T19:54:53.346Z,3.25
2022-09-07T20:02:25.898Z,6.10
2022-09-07T20:04:53.928Z,1.65
2022-09-07T20:07:21.181Z,5.57
2022-09-07T20:09:50.861Z,4.13
2022-09-07T20:12:22.207Z,4.65
2022-09-07T20:14:49.485Z,2.05
2022-09-07T20:17:16.958Z,3.38
2022-09-07T20:24:40.994Z,3.33
2022-09-07T20:27:08.449Z,3.08
2022-09-07T20:29:35.953Z,2.90
2022-09-07T20:32:03.980Z,2.55
2022-09-07T20:34:33.876Z,3.58
2022-09-07T20:37:01.972Z,3.88
2022-09-07T20:39:29.331Z,3.03
2022-09-07T20:44:42.072Z,3.67
2022-09-07T20:47:09.561Z,3.22
2022-09-07T20:49:36.902Z,3.15
2022-09-07T20:52:04.328Z,2.60
2022-09-07T20:54:33.953Z,4.22
2022-09-07T20:57:04.049Z,3.25
2022-09-07T20:59:33.190Z,1.65
2022-09-07T21:02:01.061Z,2.83
2022-09-07T21:09:39.005Z,3.30
2022-09-07T21:12:06.476Z,2.90
2022-09-07T21:14:35.445Z,3.42
2022-09-07T21:17:02.833Z,3.50
2022-09-07T21:19:30.097Z,2.42
2022-09-07T21:21:57.768Z,4.30
2022-09-07T21:24:25.271Z,2.25
2022-09-07T21:35:39.486Z,2.42
2022-09-07T21:38:06.875Z,1.50
2022-09-07T21:40:34.857Z,2.55
2022-09-07T21:43:02.293Z,4.38
2022-09-07T21:45:33.462Z,1.90
2022-09-07T21:48:00.846Z,3.28
2022-09-07T21:50:28.141Z,5.03
2022-09-07T21:52:56.136Z,2.33
2022-09-07T22:02:42.392Z,1.88
2022-09-07T22:05:10.097Z,2.60
2022-09-07T22:07:37.593Z,2.28
2022-09-07T22:10:06.454Z,3.05
2022-09-07T22:12:35.246Z,2.22
2022-09-07T22:15:03.521Z,3.47
2022-09-07T22:17:31.123Z,2.17
2022-09-07T22:26:29.550Z,1.77
2022-09-07T22:28:58.785Z,1.35
2022-09-07T22:31:29.834Z,3.15
2022-09-07T22:33:58.904Z,4.30
2022-09-07T22:36:28.030Z,1.88
2022-09-07T22:38:58.378Z,2.00
2022-09-07T22:41:38.098Z,3.08
2022-09-07T22:46:55.681Z,2.78
2022-09-07T22:49:23.115Z,2.22
2022-09-07T22:51:50.764Z,2.47
2022-09-07T22:54:20.254Z,2.67
2022-09-07T22:56:47.626Z,3.33
2022-09-07T22:59:15.457Z,3.10
2022-09-07T23:01:42.914Z,3.05
2022-09-07T23:09:16.371Z,3.78
2022-09-07T23:11:45.333Z,1.52
2022-09-07T23:14:15.934Z,4.32
2022-09-07T23:16:44.181Z,3.13
2022-09-07T23:19:17.854Z,2.55
2022-09-07T23:21:45.782Z,2.20
2022-09-07T23:24:16.712Z,2.30
2022-09-07T23:34:29.123Z,2.95
2022-09-07T23:36:56.610Z,3.28
2022-09-07T23:39:23.906Z,3.20
2022-09-07T23:41:51.367Z,2.28
2022-09-07T23:44:20.509Z,2.25
2022-09-07T23:46:48.465Z,4.85
2022-09-07T23:49:15.779Z,4.47
2022-09-07T23:59:27.352Z,2.67
